Terminal Aerodrome Forecast
Issued by NWS

Home | Current Version | Previous Version | Text Only | Print | Product List | Glossary On
Versions: 1 2 3 4 5 6 7 8 9 10 11 12 13 14 15 16
235
FTUS43 KMPX 291131
TAFAXN
TAF
KAXN 291131Z 2912/3012 30015KT P6SM OVC012
      TEMPO 2912/2915 OVC008
     FM291500 31016G25KT P6SM VCSH OVC015
     FM291900 31016G25KT P6SM VCSH OVC025
     FM292200 31015G22KT P6SM OVC040
     FM300100 30010KT P6SM SCT040 BKN100
     FM300800 30011KT P6SM OVC025=

USA.gov is the U.S. government's official web portal to all federal, state and local government web resources and services.